Racecast

Emily Reyst

Saline (MI) · 12 · SECMI D1 · Compare head to head

Athlete rating 124.6 2013 TF season
Best race 143.8 XC
Races 49
Seasons 5 2009 — 2013

RankedNation #5948·MI #304·MI D1 #2223·SEC #67·Team #19 ?

Cross Country

2012 XC 129.4

Saline (MI) · Grade 12

Date Meet Event Result Place Rating Difficulty PR/SR Flags
2012-10-18 Hudson Mills Metropark - OFFICIAL 5000m 21:40.4 18th · 12th on team 128.4 +0.065 CSR
2012-10-12 Willow Metropark OFFICIAL 5000m 21:41.2 52nd · 19th on team 128.1 +0.076 CSR
2012-09-29 Huron Meadows Metropark OFFICIAL 5000m 21:03.2 11th · 6th on team 133.7 +0.081 ★CR CSR RSR
2012-09-27 Munson Park 5000m 21:00.6 5th · 5th on team 132.6 +0.083 ★CR SR CSR RSR
2012-09-11 Indian Creek OFFICIAL 5000m 21:21.8 5th · 5th on team 130.1 +0.067 ★CR CSR
2012-09-08 Lake Erie Metro Park OFFICIAL 5000m 22:22 33rd · 10th on team 125.8 +0.084 CSR
2012-09-06 Huron Meadows Metropark OFFICIAL 5000m 21:49.8 25th · 11th on team 128.1 +0.081
2012-08-29 Huron Meadows Metropark OFFICIAL 5000m 21:18.5 24th · 15th on team 132.0 +0.081 CR SR CSR RSR
2012-08-22 Huron Meadows Metropark OFFICIAL 5000m 22:34.7 20th · 11th on team 125.3 +0.081 SR CSR RSR

2011 XC 124.6

Saline (MI) · Grade 11

Date Meet Event Result Place Rating Difficulty PR/SR Flags
2011-10-20 Hudson Mills Metropark - OFFICIAL 5000m 22:30 45th · 25th on team 124.2 +0.065 CSR
2011-10-14 Willow Metropark OFFICIAL 5000m 21:40.7 54th · 20th on team 130.3 +0.076 ★CR SR CSR RSR
2011-10-01 Huron Meadows Metropark OFFICIAL 5000m 22:00.3 33rd · 17th on team 128.3 +0.081 CR SR CSR RSR
2011-09-27 Mill Pond Park 5000m 23:20.3 16th · 15th on team 123.5 +0.106 ★CR CSR
2011-09-24 Sterling State Park 5000m 22:33.1 6th · 3rd on team 125.5 +0.089 ★CR SR CSR RSR
2011-09-17 Willow Metropark OFFICIAL 5000m 22:48.4 12th · 8th on team 121.2 +0.076 CR SR CSR RSR
2011-09-13 Willow Metropark OFFICIAL 5000m 23:44.2 24th · 16th on team 119.3 +0.076 CR SR CSR RSR

2010 XC 138.2

Saline (MI) · Grade 10

Date Meet Event Result Place Rating Difficulty PR/SR Flags
2010-11-06 Michigan International Speedway (MIS) 5000m 19:32.9 107th · 5th on team 139.9 +0.057 ★PR ★CR SR CSR
2010-10-30 Lake Erie Metro Park OFFICIAL 5000m 19:48 13th · 5th on team 143.8 +0.084 ★CR ★R SR CSR RSR
2010-10-21 Hudson Mills Metropark - OFFICIAL 5000m 20:05 13th · 5th on team 138.1 +0.065 CSR
2010-10-09 Portage West MS 5000m 21:07.4 85th · 5th on team 133.1 +0.066 CSR
2010-09-28 Pioneer HS 5000m 20:38 13th · 5th on team 139.0 +0.095 ★CR CSR
2010-09-25 Ella Sharp Park OFFICIAL 5000m 19:50.6 30th · 4th on team 139.1 +0.066 ★CR SR CSR RSR
2010-09-17 Forest Akers East Golf Course 5000m 20:37 85th · 4th on team 137.5 +0.085 ★CR CSR RSR
2010-09-14 Heritage Park (Adrian) OFFICIAL 5000m 21:05 16th · 5th on team 137.3 +0.111 ★CR CSR RSR
2010-09-11 Bath 5000m 20:23 17th · 4th on team 135.9 +0.078 ★CR SR CSR RSR

2009 XC 138.9

Saline (MI) · Grade 9

Date Meet Event Result Place Rating Difficulty PR/SR Flags
2009-11-07 Michigan International Speedway (MIS) 5000m 19:45.2 50th · 4th on team 142.2 +0.057 PR CR R SR CSR RSR
2009-10-22 Hudson Mills Metropark - OFFICIAL 5000m 19:51 14th · 5th on team 141.0 +0.065 ★CR CSR
2009-10-10 Portage West MS 5000m 19:48.5 55th · 4th on team 141.3 +0.066 PR ★CR R SR CSR RSR
2009-09-26 Ella Sharp Park OFFICIAL 5000m 19:54 37th · 5th on team 138.7 +0.066 PR CR R SR CSR RSR
2009-09-10 Ypsilanti HS 5000m 22:28 14th · 5th on team 131.5 +0.113 PR ★CR R SR CSR RSR

Track & Field

2013 TF 119.0

Saline (MI) · Grade 12

Date Meet Event Result Place Rating Difficulty PR/SR Flags
2013-05-23 SEC Championship-GIRLS 400m 1:04.36 9th · 1st on team -0.033 ★PR SR
2013-05-23 SEC Championship-GIRLS 400m 1:04.36 9th · 1st on team -0.033
2013-05-17 MHSAA Region 3-1 800m 2:29.94 7th · 4th on team 121.1 -0.038
2013-05-10 Siena Heights Invitational 800m 2:26.11 3rd · 1st on team 124.6 -0.037 SR RSR
2013-05-03 Golden Triangle Invitational 800m 2:29.12 16th · 4th on team 121.6 -0.038 SR RSR
2013-04-27 Saline Hornet Invitational 1600m 6:02.1 23rd · 11th on team 112.2 -0.042 SR
2013-04-09 Ann Arbor Pioneer vs. Saline Dual 800m 2:35.98 4th · 3rd on team 115.8 -0.042 SR RSR

2012 TF 124.2

Saline (MI) · Grade 11

Date Meet Event Result Place Rating Difficulty PR/SR Flags
2012-05-18 MHSAA Region 3-1 800m 2:22.71 4th · 2nd on team 126.2 -0.042 SR RSR
2012-05-11 Siena Heights Invitational 800m 2:26.02 8th · 3rd on team 123.8 -0.037
2012-05-01 Saline vs. Huron 800m 2:28.23 5th · 4th on team 121.5 -0.034
2012-04-27 Jackson (JD) Invitational 800m 2:24.01 4th · 3rd on team 125.3 -0.037 SR RSR

2011 TF 123.8

Saline (MI) · Grade 10

Date Meet Event Result Place Rating Difficulty PR/SR Flags
2011-06-16 Temp Meet 3200m 11:56.5 3rd · 3rd on team 122.8 -0.034 SR
2011-05-31 Larry Steeb Memorial Meet of Champions 1600m 5:41.49 13th · 2nd on team 121.4 -0.029 ★PR SR
2011-05-20 MHSAA Regional 800m 2:21.7 7th · 2nd on team 126.6 -0.042 ★PR SR RSR
2011-05-14 River Rat Invitational 800m 2:25.98 5th · 2nd on team 124.5 -0.034 SR RSR

2010 TF 122.6

Saline (MI) · Grade 9

Date Meet Event Result Place Rating Difficulty PR/SR Flags
2010-05-21 Race results → 800m 2:23.6 8th · 3rd on team PR SR
2010-05-21 Race results → 3200m 13:13.1 16th · 4th on team
2010-05-15 River Rat Invitational 3200m 11:56.5 3rd · 3rd on team 122.6 -0.034 PR SR RSR
2010-03-27 Race results → 3200m 12:42.84 8th · 2nd on team PR SR